Time;durP1;ratioP1;P1;durP2;ratioP2;P2;SDS_P1;SDS_P2;PMS_P1;PMS_P2;Temp;Humidity;BMP_temperature;BMP_pressure;BME280_temperature;BME280_humidity;BME280_pressure;Samples;Min_cycle;Max_cycle;Signal;HPM_P1;HPM_P2
2023/02/13 00:00:31;;;;;;;;;19.33;18.67;;;;;1.33;99.32;100429.16;4915704;28;102566;-69
2023/02/13 00:02:58;;;;;;;;;11.75;10.50;;;;;1.34;98.82;100425.56;4914967;28;104120;-70
2023/02/13 00:05:25;;;;;;;;;28.00;18.00;;;;;1.38;99.62;100427.06;4914434;28;102231;-69
2023/02/13 00:07:52;;;;;;;;;30.33;25.00;;;;;1.39;100.00;100425.25;4910799;28;102101;-69
2023/02/13 00:10:19;;;;;;;;;20.33;18.00;;;;;1.42;99.68;100425.91;4913915;28;102530;-69
2023/02/13 00:12:46;;;;;;;;;25.75;19.75;;;;;1.44;99.69;100423.16;4911771;28;103977;-70
2023/02/13 00:15:13;;;;;;;;;25.67;19.33;;;;;1.46;99.80;100424.75;4913164;28;101970;-69
2023/02/13 00:17:40;;;;;;;;;31.33;19.33;;;;;1.48;99.74;100425.53;4916101;28;102346;-69
2023/02/13 00:20:09;;;;;;;;;20.00;17.00;;;;;1.50;99.25;100426.28;4913921;28;102162;-69
2023/02/13 00:22:37;;;;;;;;;31.33;24.00;;;;;1.49;99.35;100429.88;4911402;28;104152;-69
2023/02/13 00:25:05;;;;;;;;;35.33;27.00;;;;;1.50;99.42;100425.41;4910650;28;102541;-69
2023/02/13 00:27:33;;;;;;;;;30.00;21.33;;;;;1.50;99.68;100420.94;4913276;28;102144;-69
2023/02/13 00:30:00;;;;;;;;;30.33;24.67;;;;;1.51;99.27;100422.66;4917696;28;102132;-70
2023/02/13 00:32:27;;;;;;;;;23.00;21.67;;;;;1.52;99.66;100428.84;4913849;28;103773;-68
2023/02/13 00:34:55;;;;;;;;;29.67;21.00;;;;;1.53;99.26;100428.72;4913587;28;102473;-68
2023/02/13 00:37:22;;;;;;;;;20.67;17.33;;;;;1.53;99.15;100431.38;4910454;28;102314;-69
2023/02/13 00:39:49;;;;;;;;;17.00;13.00;;;;;1.57;98.71;100432.94;4946494;28;102061;-70
2023/02/13 00:42:16;;;;;;;;;17.25;14.25;;;;;1.56;98.92;100425.88;4910001;28;104447;-70
2023/02/13 00:44:43;;;;;;;;;16.50;13.75;;;;;1.59;99.02;100433.66;4912081;28;102525;-69
2023/02/13 00:47:13;;;;;;;;;14.00;11.00;;;;;1.60;98.79;100427.38;4912198;28;102221;-69
2023/02/13 00:49:40;;;;;;;;;15.50;13.75;;;;;1.62;98.88;100424.63;4913174;28;103827;-69
2023/02/13 00:52:07;;;;;;;;;14.00;10.50;;;;;1.65;98.77;100419.09;4908756;28;104010;-69
2023/02/13 00:54:34;;;;;;;;;12.75;12.00;;;;;1.66;98.54;100420.81;4913047;28;102155;-69
2023/02/13 00:57:02;;;;;;;;;21.00;15.25;;;;;1.66;98.13;100410.16;4909603;28;102346;-70
2023/02/13 00:59:29;;;;;;;;;19.00;11.25;;;;;1.67;98.88;100420.69;4912779;28;102572;-70
2023/02/13 01:01:56;;;;;;;;;10.25;7.25;;;;;1.68;98.12;100409.06;4911996;28;104067;-69
2023/02/13 01:04:23;;;;;;;;;14.00;10.00;;;;;1.69;98.95;100409.94;4906407;28;102442;-68
2023/02/13 01:06:50;;;;;;;;;15.00;10.00;;;;;1.70;98.87;100395.66;4910610;28;102336;-69
2023/02/13 01:09:17;;;;;;;;;15.50;12.00;;;;;1.71;98.94;100408.03;4911797;28;102301;-69
2023/02/13 01:11:44;;;;;;;;;14.50;12.25;;;;;1.73;98.92;100398.97;4913153;28;104022;-69
2023/02/13 01:14:11;;;;;;;;;16.75;14.75;;;;;1.72;99.31;100394.59;4911286;28;102512;-69
2023/02/13 01:16:38;;;;;;;;;17.25;14.00;;;;;1.66;99.03;100378.16;4914166;28;102315;-69
2023/02/13 01:19:05;;;;;;;;;13.50;11.00;;;;;1.76;98.74;100396.09;4914864;28;102180;-69
2023/02/13 01:21:32;;;;;;;;;11.67;9.67;;;;;1.77;98.68;100388.94;4912384;28;104108;-70
2023/02/13 01:24:02;;;;;;;;;9.00;6.75;;;;;1.80;99.34;100394.94;4915049;28;101994;-70
2023/02/13 01:26:30;;;;;;;;;6.00;5.75;;;;;1.72;98.62;100375.91;4900370;28;102718;-70
2023/02/13 01:28:57;;;;;;;;;7.00;7.00;;;;;1.85;98.74;100391.13;4918082;28;101977;-69
2023/02/13 01:31:24;;;;;;;;;8.50;5.50;;;;;1.85;98.22;100385.78;4916429;28;108590;-69
2023/02/13 01:33:51;;;;;;;;;14.00;11.25;;;;;1.85;98.48;100386.63;4908137;28;102554;-69
2023/02/13 01:36:18;;;;;;;;;12.25;10.75;;;;;1.87;98.82;100386.53;4913734;28;102353;-68
2023/02/13 01:38:45;;;;;;;;;9.00;8.00;;;;;1.88;98.71;100390.91;4915885;28;102095;-68
2023/02/13 01:41:14;;;;;;;;;14.75;11.25;;;;;1.68;99.22;100345.09;4913779;28;104205;-69
2023/02/13 01:43:48;;;;;;;;;13.50;12.25;;;;;1.89;98.46;100373.97;4913551;28;102275;-69
2023/02/13 01:46:20;;;;;;;;;15.50;13.50;;;;;1.92;98.64;100384.41;4910954;28;102400;-69
2023/02/13 01:48:49;;;;;;;;;10.75;9.25;;;;;1.90;98.51;100380.97;4915212;28;102002;-69
2023/02/13 01:51:21;;;;;;;;;10.50;9.25;;;;;1.93;98.36;100383.47;4912878;28;104061;-69
2023/02/13 01:54:10;;;;;;;;;7.75;6.75;;;;;1.95;99.42;100376.19;4915991;28;102307;-69
2023/02/13 01:56:48;;;;;;;;;9.00;6.75;;;;;1.95;99.26;100379.72;4913496;28;102408;-69
2023/02/13 01:59:21;;;;;;;;;16.50;14.25;;;;;1.96;98.86;100375.25;4913929;28;102464;-69
2023/02/13 02:01:48;;;;;;;;;17.50;16.00;;;;;1.93;98.83;100370.97;4911888;28;103926;-69
2023/02/13 02:04:27;;;;;;;;;8.00;7.00;;;;;1.89;98.57;100361.44;4908194;28;102187;-69
2023/02/13 02:07:10;;;;;;;;;10.25;9.50;;;;;1.78;99.24;100346.19;4909874;28;102598;-70
2023/02/13 02:09:59;;;;;;;;;13.00;10.25;;;;;1.90;98.85;100356.97;4913550;28;102296;-69
2023/02/13 02:12:57;;;;;;;;;16.00;13.25;;;;;1.90;99.61;100354.31;4907398;28;107721;-70
2023/02/13 02:15:47;;;;;;;;;15.25;14.00;;;;;1.92;98.69;100358.59;4909037;28;102393;-70
2023/02/13 02:18:32;;;;;;;;;8.00;8.00;;;;;1.93;99.35;100360.31;4913342;28;102229;-70
2023/02/13 02:21:34;;;;;;;;;8.75;6.50;;;;;1.94;99.66;100358.47;4915805;28;102378;-70
2023/02/13 02:24:25;;;;;;;;;7.50;5.25;;;;;1.95;98.61;100361.03;4908938;28;108504;-70
2023/02/13 02:27:26;;;;;;;;;6.50;5.50;;;;;1.94;99.46;100351.31;4912211;28;102280;-70
2023/02/13 02:30:08;;;;;;;;;14.25;10.00;;;;;1.96;98.95;100353.91;4911045;28;102178;-70
2023/02/13 02:32:35;;;;;;;;;12.00;10.50;;;;;1.95;98.99;100344.19;4914281;28;102475;-71
2023/02/13 02:35:17;;;;;;;;;5.75;5.00;;;;;1.97;99.21;100348.47;4913616;28;103990;-70
2023/02/13 02:38:04;;;;;;;;;11.25;10.75;;;;;1.98;99.08;100355.50;4909654;28;102546;-70
2023/02/13 02:41:03;;;;;;;;;12.00;10.25;;;;;1.98;99.12;100352.00;4908855;28;102323;-71
2023/02/13 02:43:57;;;;;;;;;13.50;8.75;;;;;1.98;99.88;100346.66;4911241;28;102348;-70
2023/02/13 02:46:38;;;;;;;;;13.75;12.50;;;;;1.99;99.39;100354.53;4911043;28;108623;-71
2023/02/13 02:52:07;;;;;;;;;13.75;9.25;;;;;1.99;100.00;100345.69;4910197;28;102335;-71
2023/02/13 03:06:09;;;;;;;;;14.00;13.00;;;;;1.99;100.00;100349.22;4910287;28;104062;-71
2023/02/13 03:06:12;;;;;;;;;14.00;10.50;;;;;2.02;100.00;100354.34;4910751;28;102469;-71
2023/02/13 03:14:26;;;;;;;;;18.25;16.75;;;;;2.07;100.00;100354.88;4910330;28;102085;-71
2023/02/13 03:22:53;;;;;;;;;19.50;14.25;;;;;2.15;100.00;100355.22;4909791;28;104248;-72
2023/02/13 03:25:33;;;;;;;;;21.00;17.25;;;;;2.15;100.00;100347.22;4908780;28;102471;-71
2023/02/13 03:31:09;;;;;;;;;34.75;27.25;;;;;2.18;100.00;100354.16;4909539;28;108700;-71
2023/02/13 03:33:45;;;;;;;;;37.67;32.00;;;;;2.11;100.00;100358.22;4909128;28;102570;-72
2023/02/13 03:39:11;;;;;;;;;46.67;35.33;;;;;2.14;100.00;100352.66;4908238;28;102513;-71
2023/02/13 03:41:44;;;;;;;;;49.00;39.33;;;;;2.15;100.00;100344.56;4909598;28;103966;-71
2023/02/13 03:44:37;;;;;;;;;32.67;26.67;;;;;2.21;100.00;100343.25;4898635;28;102869;-72
2023/02/13 03:47:08;;;;;;;;;31.50;28.25;;;;;2.15;100.00;100339.22;4907839;28;102154;-72
2023/02/13 03:59:16;;;;;;;;;60.00;46.00;;;;;2.22;100.00;100355.63;4633330;28;103948;-67
2023/02/13 04:02:26;;;;;;;;;37.00;31.33;;;;;2.25;100.00;100347.44;4571915;28;103367;-71
2023/02/13 04:05:46;;;;;;;;;42.33;34.67;;;;;2.25;100.00;100348.28;4612606;28;102071;-69
2023/02/13 04:08:54;;;;;;;;;34.25;26.50;;;;;1.98;100.00;100312.00;4595108;28;102446;-70
2023/02/13 04:12:07;;;;;;;;;36.00;24.50;;;;;2.28;100.00;100357.91;4621070;28;107723;-70
2023/02/13 04:15:24;;;;;;;;;42.00;32.33;;;;;2.27;100.00;100350.00;4612006;28;102972;-68
2023/02/13 04:19:26;;;;;;;;;56.33;39.67;;;;;1.99;100.00;100314.53;4753448;28;102115;-67
2023/02/13 04:23:05;;;;;;;;;64.33;45.33;;;;;2.23;100.00;100354.69;4765052;28;102757;-68
2023/02/13 04:26:48;;;;;;;;;46.33;37.00;;;;;2.30;100.00;100363.97;4723383;28;106188;-67
2023/02/13 04:30:57;;;;;;;;;40.33;30.67;;;;;2.32;100.00;100354.06;4715086;28;102099;-67
2023/02/13 04:35:03;;;;;;;;;24.50;23.50;;;;;2.33;100.00;100353.09;4794739;28;102707;-69
2023/02/13 04:38:59;;;;;;;;;22.25;18.50;;;;;2.33;100.00;100352.25;4835935;28;102122;-68
2023/02/13 04:42:57;;;;;;;;;21.75;18.00;;;;;2.37;100.00;100359.94;4734194;28;102934;-68
2023/02/13 04:46:34;;;;;;;;;23.75;15.75;;;;;2.39;100.00;100358.00;4580767;28;102153;-68
2023/02/13 04:50:27;;;;;;;;;17.00;14.00;;;;;2.39;100.00;100358.00;4720286;28;102137;-69
2023/02/13 04:54:38;;;;;;;;;17.00;13.25;;;;;2.41;100.00;100348.09;4830940;28;102366;-69
2023/02/13 04:58:41;;;;;;;;;17.00;13.00;;;;;2.42;100.00;100359.63;4740650;28;106705;-68
2023/02/13 05:02:32;;;;;;;;;17.75;15.50;;;;;2.42;100.00;100352.47;4727369;28;102866;-68
2023/02/13 05:06:26;;;;;;;;;18.50;14.25;;;;;2.40;100.00;100345.50;4671489;28;107456;-68
2023/02/13 05:10:16;;;;;;;;;22.00;18.50;;;;;2.38;100.00;100340.28;4679737;28;102968;-69
2023/02/13 05:13:56;;;;;;;;;19.50;15.50;;;;;2.41;100.00;100345.41;4611826;28;106985;-68
2023/02/13 05:17:55;;;;;;;;;31.00;20.25;;;;;2.40;100.00;100343.69;4696908;28;102214;-67
2023/02/13 05:25:52;;;;;;;;;24.00;18.50;;;;;2.28;100.00;100322.34;4814875;28;103512;-68
2023/02/13 05:29:32;;;;;;;;;25.50;20.50;;;;;1.49;100.00;100182.00;4699032;28;102098;-69
2023/02/13 05:33:46;;;;;;;;;19.25;13.75;;;;;2.39;100.00;100344.66;4660975;28;102093;-68
2023/02/13 05:41:45;;;;;;;;;15.50;14.00;;;;;2.38;100.00;100367.00;4675447;28;101933;-68
2023/02/13 05:49:22;;;;;;;;;34.75;30.50;;;;;2.31;100.00;100349.66;4635766;28;102018;-67
2023/02/13 05:53:02;;;;;;;;;39.50;29.00;;;;;2.34;100.00;100360.16;4639005;28;102829;-68
2023/02/13 06:01:18;;;;;;;;;29.75;22.50;;;;;2.34;100.00;100349.47;4698680;28;105961;-68
2023/02/13 06:05:02;;;;;;;;;18.50;17.75;;;;;2.35;100.00;100350.31;4654156;28;101980;-69
2023/02/13 06:09:01;;;;;;;;;24.75;14.25;;;;;2.37;100.00;100346.59;4759127;28;102014;-68
2023/02/13 06:12:55;;;;;;;;;31.00;21.50;;;;;2.38;100.00;100355.47;4626884;28;102246;-69
2023/02/13 06:17:11;;;;;;;;;17.50;15.00;;;;;2.40;100.00;100359.72;4675538;28;108340;-68
2023/02/13 06:21:01;;;;;;;;;17.00;13.50;;;;;2.39;100.00;100360.66;4707871;28;104595;-68
2023/02/13 06:28:27;;;;;;;;;19.00;17.00;;;;;2.44;100.00;100363.88;4737005;28;102034;-68
2023/02/13 06:31:52;;;;;;;;;21.25;15.00;;;;;1.79;100.00;100259.91;4708555;28;106101;-69
2023/02/13 06:35:36;;;;;;;;;25.25;16.00;;;;;2.33;100.00;100339.75;4661042;28;102040;-67
2023/02/13 06:39:19;;;;;;;;;11.25;9.75;;;;;2.53;100.00;100368.56;4618979;28;101891;-67
2023/02/13 06:43:02;;;;;;;;;18.50;12.25;;;;;2.55;100.00;100374.69;4758137;28;103452;-68
2023/02/13 06:46:46;;;;;;;;;19.75;13.75;;;;;2.58;100.00;100369.13;4618454;28;102822;-68
2023/02/13 06:54:43;;;;;;;;;17.00;14.75;;;;;2.57;100.00;100359.38;4785738;28;103169;-68
2023/02/13 06:58:56;;;;;;;;;17.75;14.00;;;;;2.57;100.00;100343.38;4685006;28;103266;-67
2023/02/13 07:03:02;;;;;;;;;20.75;14.00;;;;;2.75;100.00;100369.75;4736370;28;106227;-68
2023/02/13 07:06:54;;;;;;;;;22.50;20.25;;;;;2.67;100.00;100343.56;4717839;28;102059;-69
2023/02/13 07:10:52;;;;;;;;;23.00;19.00;;;;;2.87;100.00;100382.25;4810059;28;103647;-68
2023/02/13 07:14:57;;;;;;;;;10.25;9.25;;;;;2.73;100.00;100344.97;4734732;28;103156;-68
2023/02/13 07:18:43;;;;;;;;;21.25;17.75;;;;;2.97;100.00;100370.78;4658101;28;106727;-68
2023/02/13 07:22:25;;;;;;;;;20.50;13.50;;;;;3.09;100.00;100372.59;4727928;28;101975;-67
2023/02/13 07:26:28;;;;;;;;;13.25;12.75;;;;;3.17;100.00;100369.34;4638702;28;102915;-68
2023/02/13 07:30:04;;;;;;;;;15.50;14.75;;;;;3.24;100.00;100367.94;4626344;29;101897;-70
2023/02/13 07:33:52;;;;;;;;;6.00;1.75;;;;;3.38;100.00;100381.13;4459494;29;106586;-68
2023/02/13 07:37:47;;;;;;;;;17.75;15.75;;;;;3.47;100.00;100383.16;4645557;29;102073;-67
2023/02/13 07:41:34;;;;;;;;;15.00;11.75;;;;;3.52;100.00;100361.41;4650872;29;102040;-68
2023/02/13 07:45:29;;;;;;;;;9.00;6.00;;;;;3.53;100.00;100347.94;4536999;28;103036;-67
2023/02/13 07:49:06;;;;;;;;;10.50;9.50;;;;;3.75;100.00;100357.03;4610749;28;108005;-67
2023/02/13 07:52:52;;;;;;;;;13.75;10.75;;;;;3.87;100.00;100369.50;4627407;29;102511;-67
2023/02/13 07:56:30;;;;;;;;;13.75;10.00;;;;;3.96;99.53;100372.31;4642056;28;102824;-68
2023/02/13 08:00:32;;;;;;;;;15.75;12.00;;;;;4.00;98.93;100351.56;4658200;28;103270;-67
2023/02/13 08:16:35;;;;;;;;;11.25;8.00;;;;;4.40;98.03;100360.06;4583159;28;102928;-68
2023/02/13 08:20:52;;;;;;;;;12.75;11.00;;;;;4.31;96.86;100340.19;4621577;29;104453;-67
2023/02/13 08:24:30;;;;;;;;;18.50;15.50;;;;;4.30;96.81;100354.56;4649377;29;101976;-68
2023/02/13 08:28:22;;;;;;;;;33.75;22.25;;;;;4.44;97.16;100372.22;4590303;29;102585;-70
2023/02/13 08:32:38;;;;;;;;;24.25;17.75;;;;;4.43;95.62;100379.41;4607784;29;103185;-68
2023/02/13 08:36:14;;;;;;;;;18.00;15.50;;;;;4.17;95.33;100342.22;4495268;29;107145;-68
2023/02/13 08:39:56;;;;;;;;;15.25;12.00;;;;;4.39;95.99;100374.41;4583673;28;103189;-68
2023/02/13 08:43:52;;;;;;;;;17.25;13.25;;;;;4.40;96.17;100376.97;4720430;28;102389;-67
2023/02/13 08:47:30;;;;;;;;;18.50;12.00;;;;;4.27;96.27;100349.44;4654277;28;103509;-67
2023/02/13 08:50:56;;;;;;;;;16.00;12.00;;;;;4.17;95.59;100319.00;4786119;28;107177;-68
2023/02/13 08:54:35;;;;;;;;;19.75;14.75;;;;;4.47;95.23;100370.16;4578209;28;103180;-68
2023/02/13 08:58:34;;;;;;;;;19.50;13.25;;;;;4.50;95.71;100372.59;4684035;28;102068;-71
2023/02/13 09:02:47;;;;;;;;;6.00;4.00;;;;;4.66;95.80;100366.03;4726795;28;103284;-67
2023/02/13 09:06:55;;;;;;;;;12.00;9.25;;;;;4.74;96.12;100366.28;4643677;28;107207;-69
2023/02/13 09:10:48;;;;;;;;;13.25;13.00;;;;;4.85;95.75;100372.53;4675017;28;102099;-69
2023/02/13 09:14:48;;;;;;;;;8.50;7.25;;;;;4.85;95.56;100369.84;4716175;28;103005;-66
2023/02/13 09:18:32;;;;;;;;;17.00;15.75;;;;;4.72;95.61;100349.50;4725121;28;103032;-67
2023/02/13 09:22:31;;;;;;;;;16.50;12.75;;;;;5.00;95.42;100365.06;4679313;28;106911;-67
2023/02/13 09:26:23;;;;;;;;;12.25;11.00;;;;;5.12;95.53;100364.09;4690811;28;101939;-68
2023/02/13 09:30:04;;;;;;;;;16.25;15.00;;;;;5.19;95.32;100367.13;4714148;28;103532;-68
2023/02/13 09:34:22;;;;;;;;;37.25;28.25;;;;;5.09;94.58;100358.97;4688227;28;102713;-68
2023/02/13 09:38:14;;;;;;;;;44.50;35.50;;;;;5.00;94.16;100367.75;4675457;28;106889;-68
2023/02/13 09:41:49;;;;;;;;;36.25;30.50;;;;;5.12;94.97;100357.88;4807965;28;101871;-69
2023/02/13 09:45:17;;;;;;;;;33.75;30.50;;;;;4.93;95.09;100358.50;4696212;28;102740;-69
2023/02/13 09:49:17;;;;;;;;;28.25;25.25;;;;;4.85;94.88;100359.13;4647853;28;102118;-69
2023/02/13 09:53:03;;;;;;;;;36.75;33.00;;;;;4.42;98.23;100348.22;4732387;28;106223;-69
2023/02/13 09:57:17;;;;;;;;;27.25;26.50;;;;;4.47;99.40;100370.16;4813045;28;102140;-69
2023/02/13 10:01:00;;;;;;;;;21.50;20.25;;;;;4.76;99.31;100354.50;4716591;28;102158;-68
2023/02/13 10:05:18;;;;;;;;;27.50;21.75;;;;;4.56;98.46;100324.88;4700312;28;102324;-69
2023/02/13 10:08:58;;;;;;;;;32.75;25.25;;;;;5.11;98.62;100357.03;4621582;28;107185;-68
2023/02/13 10:13:01;;;;;;;;;24.00;24.00;;;;;4.98;96.76;100345.59;4692270;28;101956;-69
2023/02/13 10:16:36;;;;;;;;;29.50;27.25;;;;;5.15;97.59;100353.13;4634793;29;103050;-68
2023/02/13 10:20:27;;;;;;;;;30.50;25.00;;;;;5.07;97.12;100339.50;4537410;29;102212;-68
2023/02/13 10:24:18;;;;;;;;;29.75;21.75;;;;;5.11;97.79;100334.72;4672877;28;107734;-68
2023/02/13 10:27:58;;;;;;;;;17.75;15.25;;;;;5.40;96.33;100333.22;4681011;28;103013;-69
2023/02/13 10:31:31;;;;;;;;;20.50;17.00;;;;;5.38;96.71;100340.53;4567669;29;102050;-69
2023/02/13 10:35:11;;;;;;;;;24.00;19.00;;;;;5.19;94.88;100324.22;4687334;29;102941;-68
2023/02/13 10:39:02;;;;;;;;;18.50;16.25;;;;;5.19;95.44;100327.75;4659311;28;102410;-69
2023/02/13 10:42:52;;;;;;;;;16.75;12.75;;;;;4.99;96.37;100320.50;4763619;28;102107;-68
2023/02/13 10:46:54;;;;;;;;;16.25;11.50;;;;;5.05;97.03;100319.13;4703087;28;103166;-69
2023/02/13 10:50:50;;;;;;;;;11.75;8.75;;;;;5.04;96.24;100317.44;4881450;28;101884;-69
2023/02/13 10:54:58;;;;;;;;;11.25;10.75;;;;;5.06;98.29;100302.94;4730657;28;105679;-69
2023/02/13 10:59:10;;;;;;;;;7.00;7.00;;;;;5.25;97.03;100300.47;4712170;28;102259;-69
2023/02/13 11:03:00;;;;;;;;;16.75;11.75;;;;;5.16;96.85;100297.66;4642856;29;103036;-68
2023/02/13 11:06:58;;;;;;;;;11.75;10.00;;;;;5.00;96.17;100262.38;4640021;28;102117;-69
2023/02/13 11:11:07;;;;;;;;;16.75;11.00;;;;;5.17;96.52;100294.88;4695181;28;108734;-69
2023/02/13 11:14:50;;;;;;;;;17.00;15.00;;;;;5.05;96.76;100295.84;4711814;28;103099;-69
2023/02/13 11:18:38;;;;;;;;;15.75;12.25;;;;;5.00;96.46;100289.19;4650820;28;102076;-70
2023/02/13 11:22:25;;;;;;;;;21.50;18.75;;;;;4.98;97.29;100299.16;4658623;28;103561;-70
2023/02/13 11:26:21;;;;;;;;;21.00;17.00;;;;;5.04;97.27;100282.59;4622098;28;107371;-69
2023/02/13 11:30:29;;;;;;;;;21.25;16.00;;;;;5.05;96.48;100293.16;4708647;28;102486;-68
2023/02/13 11:34:26;;;;;;;;;22.25;14.50;;;;;5.08;96.54;100282.22;4613202;28;103100;-69
2023/02/13 11:38:31;;;;;;;;;17.75;12.50;;;;;5.04;96.34;100258.47;4704249;28;103124;-68
2023/02/13 11:42:31;;;;;;;;;17.00;16.50;;;;;5.23;96.79;100278.25;4669602;28;106536;-68
2023/02/13 11:46:38;;;;;;;;;22.00;17.75;;;;;5.26;95.88;100275.34;4636670;28;102089;-70
2023/02/13 11:50:45;;;;;;;;;16.00;13.25;;;;;5.32;96.49;100257.88;4730828;28;101781;-68
2023/02/13 11:54:30;;;;;;;;;15.00;11.50;;;;;5.42;95.56;100264.19;4618121;28;102443;-69
2023/02/13 11:58:29;;;;;;;;;21.00;15.00;;;;;5.23;94.69;100246.09;4518437;28;107202;-69
2023/02/13 12:02:02;;;;;;;;;20.00;15.75;;;;;5.29;95.17;100259.00;4638915;28;102242;-68
2023/02/13 12:06:20;;;;;;;;;16.00;12.25;;;;;5.18;95.36;100244.78;4753877;28;102055;-68
2023/02/13 12:10:21;;;;;;;;;13.50;11.50;;;;;5.13;96.10;100244.31;4752414;28;103508;-68
2023/02/13 12:14:07;;;;;;;;;24.75;20.00;;;;;4.68;97.01;100189.97;4660209;28;107932;-68
2023/02/13 12:17:41;;;;;;;;;16.75;13.50;;;;;5.08;97.41;100238.47;4737693;28;102184;-69
2023/02/13 12:21:26;;;;;;;;;37.50;30.75;;;;;4.93;98.90;100243.25;4754402;28;102074;-68
2023/02/13 12:25:05;;;;;;;;;38.00;32.50;;;;;4.93;99.51;100237.91;4751828;28;102114;-69
2023/02/13 12:29:00;;;;;;;;;23.00;21.25;;;;;4.97;100.00;100246.53;4658784;28;107152;-69
2023/02/13 12:32:51;;;;;;;;;29.25;23.75;;;;;5.00;100.00;100249.81;4667982;28;102019;-67
2023/02/13 12:36:43;;;;;;;;;23.25;20.75;;;;;5.04;100.00;100248.59;4652534;28;102641;-68
2023/02/13 12:40:29;;;;;;;;;23.50;18.50;;;;;5.00;100.00;100252.47;4741779;28;102218;-69
2023/02/13 12:44:15;;;;;;;;;33.75;27.25;;;;;4.95;100.00;100244.81;4823411;28;106594;-68
2023/02/13 12:47:38;;;;;;;;;26.25;17.75;;;;;5.10;100.00;100236.50;4728125;28;103526;-68
2023/02/13 12:51:14;;;;;;;;;28.50;25.25;;;;;5.04;100.00;100229.84;4743996;28;102208;-68
2023/02/13 12:54:37;;;;;;;;;29.50;24.25;;;;;5.03;100.00;100241.53;4809550;28;102244;-68
2023/02/13 12:58:27;;;;;;;;;22.00;18.25;;;;;5.09;100.00;100234.81;4646918;28;108397;-68
2023/02/13 13:02:02;;;;;;;;;27.25;24.50;;;;;5.06;100.00;100230.53;4670558;28;103270;-70
2023/02/13 13:06:02;;;;;;;;;24.75;20.50;;;;;5.05;100.00;100220.78;4518422;28;101994;-68
2023/02/13 13:09:35;;;;;;;;;26.25;20.50;;;;;5.05;100.00;100223.47;4692622;28;103210;-68
2023/02/13 13:13:25;;;;;;;;;34.50;27.00;;;;;4.95;100.00;100219.88;4636337;29;106939;-69
2023/02/13 13:17:06;;;;;;;;;40.00;34.25;;;;;4.77;100.00;100221.38;4705873;28;102126;-69
2023/02/13 13:20:52;;;;;;;;;47.00;40.00;;;;;4.61;100.00;100232.47;4710638;28;102928;-69
2023/02/13 13:24:37;;;;;;;;;48.25;38.50;;;;;4.67;100.00;100239.16;4661523;28;102924;-69
2023/02/13 13:28:26;;;;;;;;;42.00;32.25;;;;;4.50;100.00;100222.59;4627029;28;106909;-69
2023/02/13 13:32:14;;;;;;;;;47.50;40.50;;;;;4.57;100.00;100233.69;4598650;29;101973;-70
2023/02/13 13:35:51;;;;;;;;;42.25;36.25;;;;;4.75;100.00;100216.13;4638650;28;102348;-69
2023/02/13 13:40:06;;;;;;;;;57.75;40.75;;;;;4.85;100.00;100221.59;4613224;29;102264;-69
2023/02/13 13:43:47;;;;;;;;;64.33;44.67;;;;;5.11;100.00;100231.03;4661144;29;107681;-69
2023/02/13 13:51:32;;;;;;;;;57.67;44.67;;;;;5.02;100.00;100229.09;4582946;29;102084;-71
2023/02/13 13:55:16;;;;;;;;;49.25;40.50;;;;;4.87;100.00;100201.72;4622801;28;102184;-69
2023/02/13 13:58:50;;;;;;;;;53.50;41.00;;;;;5.23;100.00;100229.13;4614007;29;107914;-69
2023/02/13 14:02:43;;;;;;;;;58.50;46.00;;;;;4.99;100.00;100218.63;4680728;29;102293;-70
2023/02/13 14:06:56;;;;;;;;;58.75;43.25;;;;;4.94;100.00;100226.19;4605483;28;102411;-69
2023/02/13 14:10:37;;;;;;;;;48.75;38.50;;;;;4.87;100.00;100215.13;4752976;28;103196;-69
2023/02/13 14:14:11;;;;;;;;;58.00;42.75;;;;;4.90;100.00;100220.25;4743048;28;106042;-69
2023/02/13 14:17:54;;;;;;;;;49.75;39.25;;;;;4.85;100.00;100205.50;4680342;28;102120;-69
2023/02/13 14:21:37;;;;;;;;;34.25;31.75;;;;;5.01;100.00;100221.16;4732101;28;102067;-70
2023/02/13 14:25:08;;;;;;;;;46.25;37.50;;;;;4.90;99.84;100214.03;4733527;28;102134;-69
2023/02/13 14:29:01;;;;;;;;;31.25;27.25;;;;;4.85;99.20;100209.03;4755123;28;106122;-70
2023/02/13 14:32:35;;;;;;;;;27.50;26.50;;;;;4.86;96.82;100212.59;4706983;28;102193;-69
2023/02/13 14:36:16;;;;;;;;;28.25;25.00;;;;;4.69;95.52;100199.69;4797466;28;102120;-71
2023/02/13 14:40:05;;;;;;;;;26.00;19.75;;;;;4.74;94.92;100202.84;4759775;28;103115;-69
2023/02/13 14:44:07;;;;;;;;;20.50;17.50;;;;;4.74;93.90;100205.53;4646081;28;106941;-68
2023/02/13 14:48:03;;;;;;;;;21.50;18.25;;;;;4.64;94.22;100201.91;4801893;28;101869;-68
2023/02/13 14:51:59;;;;;;;;;18.75;13.25;;;;;4.60;91.80;100200.44;4686662;28;103610;-68
2023/02/13 14:55:37;;;;;;;;;12.50;11.25;;;;;4.35;94.00;100178.31;4781242;28;103158;-68
2023/02/13 14:59:35;;;;;;;;;14.00;11.00;;;;;4.50;93.22;100198.50;4657271;28;107165;-70
2023/02/13 15:03:04;;;;;;;;;16.00;13.50;;;;;4.05;94.90;100168.22;4721826;28;101939;-68
2023/02/13 15:07:04;;;;;;;;;10.50;10.00;;;;;4.13;94.37;100209.59;4757893;28;102471;-69
2023/02/13 15:10:50;;;;;;;;;11.00;9.75;;;;;3.84;95.40;100212.72;4681251;28;104143;-68
2023/02/13 15:14:29;;;;;;;;;12.25;9.75;;;;;3.77;96.15;100216.00;4692041;28;108873;-70
2023/02/13 15:18:21;;;;;;;;;9.00;7.75;;;;;3.70;96.42;100206.72;4607377;28;102247;-70
2023/02/13 15:22:03;;;;;;;;;20.25;17.00;;;;;3.68;97.28;100197.97;4706686;28;101993;-68
2023/02/13 15:26:08;;;;;;;;;21.00;15.50;;;;;3.60;96.48;100196.72;4666559;28;102508;-70
2023/02/13 15:30:04;;;;;;;;;17.25;13.75;;;;;3.56;97.85;100189.91;4652055;28;102819;-68
2023/02/13 15:33:45;;;;;;;;;19.00;16.00;;;;;3.13;96.87;100103.28;4747274;28;102236;-69
2023/02/13 15:37:15;;;;;;;;;18.75;14.75;;;;;3.59;95.87;100215.59;4666536;28;102033;-69
2023/02/13 15:41:23;;;;;;;;;19.25;15.25;;;;;3.53;96.24;100210.69;4743333;28;102251;-69
2023/02/13 15:44:58;;;;;;;;;19.75;12.75;;;;;3.46;95.81;100194.28;4734499;28;107855;-69
2023/02/13 15:48:58;;;;;;;;;17.75;14.75;;;;;3.37;96.16;100170.94;4712034;28;102252;-69
2023/02/13 15:53:02;;;;;;;;;18.50;15.25;;;;;3.39;96.29;100179.66;4751472;28;101892;-67
2023/02/13 15:56:37;;;;;;;;;20.00;14.00;;;;;3.24;95.71;100142.56;4734370;28;102360;-69
2023/02/13 16:00:24;;;;;;;;;18.25;16.00;;;;;3.56;96.02;100205.09;4801709;28;107303;-68
2023/02/13 16:04:03;;;;;;;;;19.50;17.50;;;;;3.53;95.43;100208.03;4742567;28;102476;-69
2023/02/13 16:11:54;;;;;;;;;21.50;19.25;;;;;3.50;95.56;100217.16;4736990;28;103890;-70
2023/02/13 16:15:24;;;;;;;;;22.75;20.00;;;;;3.55;96.05;100219.47;4746414;28;102828;-69
2023/02/13 16:19:01;;;;;;;;;27.00;23.75;;;;;3.51;95.79;100221.50;4714582;28;102020;-68
2023/02/13 16:22:57;;;;;;;;;26.50;23.00;;;;;3.44;95.93;100214.94;4779060;28;102128;-71
2023/02/13 16:26:38;;;;;;;;;27.25;24.00;;;;;3.35;97.18;100209.41;4713197;28;103373;-68
2023/02/13 16:30:08;;;;;;;;;35.50;28.50;;;;;3.37;97.09;100231.56;4644570;28;102986;-68
2023/02/13 16:33:54;;;;;;;;;31.50;22.50;;;;;3.23;97.81;100234.41;4643396;28;103561;-68
2023/02/13 16:41:27;;;;;;;;;24.25;21.75;;;;;3.04;98.72;100233.09;4712478;28;102313;-70
2023/02/13 16:45:21;;;;;;;;;21.00;20.50;;;;;3.06;99.12;100236.50;4563603;28;105728;-70
2023/02/13 16:49:23;;;;;;;;;27.00;20.75;;;;;3.04;99.16;100242.94;4754140;28;102161;-71
2023/02/13 16:52:53;;;;;;;;;33.00;20.25;;;;;3.03;99.38;100241.22;4665877;28;102882;-70
2023/02/13 16:56:27;;;;;;;;;23.50;16.00;;;;;3.08;99.58;100225.72;4743046;28;102940;-70
2023/02/13 17:00:28;;;;;;;;;25.50;22.25;;;;;3.10;98.95;100215.78;4714590;28;106494;-70
2023/02/13 17:04:31;;;;;;;;;15.50;14.50;;;;;3.09;97.97;100220.25;4707165;28;102234;-69